Time;durP1;ratioP1;P1;durP2;ratioP2;P2;SDS_P1;SDS_P2;PMS_P1;PMS_P2;Temp;Humidity;BMP_temperature;BMP_pressure;BME280_temperature;BME280_humidity;BME280_pressure;Samples;Min_cycle;Max_cycle;Signal;HPM_P1;HPM_P2
2022/11/17 00:01:17;;;;;;;17.87;13.77;;;;;;;8.29;99.90;98423.78;5097256;28;20965;-63
2022/11/17 00:03:43;;;;;;;18.20;13.30;;;;;;;8.33;99.91;98416.28;5081551;28;20472;-63
2022/11/17 00:06:10;;;;;;;16.40;11.90;;;;;;;8.22;99.95;98410.34;5079594;28;20504;-63
2022/11/17 00:08:37;;;;;;;19.40;12.13;;;;;;;8.28;99.68;98419.47;5081801;28;20945;-64
2022/11/17 00:11:04;;;;;;;20.63;15.00;;;;;;;8.39;99.70;98412.97;5081008;28;20496;-63
2022/11/17 00:16:17;;;;;;;16.83;12.70;;;;;;;8.34;99.81;98402.00;5080199;28;20467;-64
2022/11/17 00:21:29;;;;;;;24.13;12.97;;;;;;;8.24;99.91;98410.97;5080044;28;20471;-62
2022/11/17 00:23:56;;;;;;;18.70;13.17;;;;;;;8.28;99.71;98390.19;5081876;28;20488;-63
2022/11/17 00:26:25;;;;;;;24.00;14.43;;;;;;;8.28;99.79;98380.38;5079182;28;20548;-62
2022/11/17 00:28:53;;;;;;;23.47;13.60;;;;;;;8.42;99.60;98393.94;5092245;28;20991;-62
2022/11/17 00:34:05;;;;;;;19.30;12.60;;;;;;;8.30;99.16;98385.53;5086283;28;20512;-64
2022/11/17 00:36:33;;;;;;;20.20;13.80;;;;;;;8.34;99.40;98384.19;5094689;28;20464;-64
2022/11/17 00:38:59;;;;;;;15.67;12.73;;;;;;;8.25;99.52;98380.72;5101363;28;20925;-64
2022/11/17 00:41:26;;;;;;;18.20;12.47;;;;;;;8.33;99.31;98371.84;5084246;28;20535;-64
2022/11/17 00:43:54;;;;;;;18.00;12.97;;;;;;;8.33;99.82;98365.72;5087246;28;20520;-63
2022/11/17 00:46:20;;;;;;;18.93;13.90;;;;;;;8.36;99.37;98349.38;5080097;28;20548;-62
2022/11/17 00:48:47;;;;;;;19.13;12.47;;;;;;;8.28;99.47;98343.09;5079830;28;20472;-62
2022/11/17 00:51:13;;;;;;;18.93;12.97;;;;;;;8.26;99.73;98339.78;5079212;28;20542;-61
2022/11/17 00:53:40;;;;;;;20.97;13.20;;;;;;;8.27;99.95;98335.28;5097331;28;20483;-61
2022/11/17 00:56:07;;;;;;;16.23;13.10;;;;;;;8.27;99.59;98333.44;5084929;28;20511;-63
2022/11/17 00:58:35;;;;;;;18.53;12.00;;;;;;;8.21;99.83;98343.94;5088330;28;20447;-63
2022/11/17 01:01:03;;;;;;;19.60;12.60;;;;;;;8.22;99.77;98325.16;5082574;28;20542;-62
2022/11/17 01:03:30;;;;;;;18.23;13.07;;;;;;;8.22;99.89;98333.13;5084478;28;20436;-62
2022/11/17 01:06:03;;;;;;;20.73;13.83;;;;;;;8.24;99.96;98325.78;5082478;28;20540;-62
2022/11/17 01:08:30;;;;;;;15.83;13.00;;;;;;;8.29;99.82;98317.31;5079875;28;20496;-63
2022/11/17 01:10:56;;;;;;;20.03;13.67;;;;;;;8.24;99.32;98315.16;5063414;28;20856;-63
2022/11/17 01:13:23;;;;;;;19.83;14.20;;;;;;;8.14;99.47;98308.38;5081400;28;20479;-63
2022/11/17 01:15:49;;;;;;;21.50;14.00;;;;;;;8.14;99.79;98311.88;5082984;28;20555;-63
2022/11/17 01:18:17;;;;;;;22.30;13.40;;;;;;;8.23;99.34;98308.19;5079260;28;20465;-63
2022/11/17 01:20:44;;;;;;;19.70;13.13;;;;;;;8.24;99.42;98304.50;5062599;28;21160;-63
2022/11/17 01:23:10;;;;;;;23.37;14.87;;;;;;;8.34;99.41;98308.81;5088169;28;20459;-64
2022/11/17 01:25:39;;;;;;;18.97;13.90;;;;;;;8.35;98.67;98292.66;5092381;28;20563;-63
2022/11/17 01:28:09;;;;;;;21.37;13.47;;;;;;;8.31;98.99;98301.97;5088980;28;20577;-63
2022/11/17 01:30:36;;;;;;;23.03;13.27;;;;;;;8.27;98.78;98298.00;5082931;28;21116;-63
2022/11/17 01:33:02;;;;;;;16.57;12.90;;;;;;;8.19;99.04;98293.53;5095705;28;20478;-63
2022/11/17 01:35:30;;;;;;;21.50;13.73;;;;;;;8.19;99.28;98290.06;5099892;28;20499;-63
2022/11/17 01:37:57;;;;;;;23.33;13.60;;;;;;;8.26;99.03;98280.38;5083727;28;20484;-62
2022/11/17 01:40:23;;;;;;;20.90;12.43;;;;;;;8.19;98.96;98282.91;5088377;28;20535;-62
2022/11/17 01:42:50;;;;;;;23.90;13.90;;;;;;;8.19;99.08;98272.25;5099503;28;20452;-62
2022/11/17 01:45:20;;;;;;;19.70;13.50;;;;;;;8.24;99.07;98261.09;5095049;28;20518;-62
2022/11/17 01:47:49;;;;;;;20.03;12.80;;;;;;;8.21;98.55;98256.09;5089377;28;20523;-62
2022/11/17 01:50:28;;;;;;;26.20;13.60;;;;;;;8.20;98.56;98257.13;5103256;28;20458;-62
2022/11/17 01:52:59;;;;;;;19.03;13.20;;;;;;;8.08;98.57;98252.19;5094551;28;20480;-62
2022/11/17 01:55:28;;;;;;;20.00;12.00;;;;;;;8.14;98.56;98245.31;5100353;28;20450;-63
2022/11/17 01:57:57;;;;;;;24.40;13.10;;;;;;;8.12;98.70;98247.34;5095142;28;20464;-63
2022/11/17 02:00:25;;;;;;;18.10;12.37;;;;;;;8.19;98.65;98242.97;5083681;28;20467;-63
2022/11/17 02:02:51;;;;;;;20.00;13.47;;;;;;;8.12;97.99;98236.69;5082873;28;20464;-63
2022/11/17 02:05:34;;;;;;;20.20;12.53;;;;;;;8.14;97.86;98253.31;5099428;28;20554;-62
2022/11/17 02:08:05;;;;;;;20.17;13.60;;;;;;;8.25;97.78;98228.97;5092205;28;20524;-62
2022/11/17 02:10:32;;;;;;;18.63;13.30;;;;;;;8.16;97.98;98226.53;5082535;28;20468;-62
2022/11/17 02:12:59;;;;;;;17.70;12.33;;;;;;;8.11;97.89;98222.56;5102300;28;20464;-62
2022/11/17 02:15:26;;;;;;;16.00;12.57;;;;;;;8.13;97.92;98214.41;5102411;28;20531;-62
2022/11/17 02:17:53;;;;;;;15.63;11.80;;;;;;;8.13;98.20;98205.59;5098058;28;20531;-62
2022/11/17 02:20:31;;;;;;;18.37;12.43;;;;;;;8.25;97.95;98209.50;5082433;28;20885;-63
2022/11/17 02:23:27;;;;;;;18.37;13.30;;;;;;;8.24;98.21;98198.00;5098286;28;20461;-62
2022/11/17 02:26:18;;;;;;;19.47;10.87;;;;;;;8.16;97.90;98200.75;5093788;28;20507;-63
2022/11/17 02:28:50;;;;;;;17.63;12.67;;;;;;;8.17;97.92;98199.72;5099151;28;20436;-63
2022/11/17 02:31:22;;;;;;;18.43;11.30;;;;;;;8.12;97.99;98199.44;5082011;28;20503;-63
2022/11/17 02:33:55;;;;;;;18.80;13.07;;;;;;;8.25;97.42;98180.22;5098631;28;20451;-63
2022/11/17 02:36:31;;;;;;;17.67;12.27;;;;;;;8.19;97.35;98175.59;5091247;28;20821;-63
2022/11/17 02:39:01;;;;;;;16.90;12.50;;;;;;;8.04;97.55;98171.03;5101846;28;20440;-63
2022/11/17 02:41:31;;;;;;;25.43;13.70;;;;;;;8.20;97.48;98158.63;5102049;28;20510;-64
2022/11/17 02:44:04;;;;;;;15.77;11.47;;;;;;;8.27;97.20;98156.91;5101887;28;20471;-64
2022/11/17 02:46:39;;;;;;;17.60;11.90;;;;;;;8.13;97.46;98171.81;5100510;28;20907;-63
2022/11/17 02:49:08;;;;;;;18.00;13.07;;;;;;;8.18;97.55;98150.81;5101690;28;20447;-63
2022/11/17 02:51:35;;;;;;;15.23;10.67;;;;;;;8.08;97.86;98147.56;5100222;28;20499;-63
2022/11/17 02:54:02;;;;;;;16.13;11.47;;;;;;;8.20;98.05;98127.50;5089764;28;20578;-63
2022/11/17 02:56:28;;;;;;;14.17;10.47;;;;;;;8.24;97.57;98128.81;5084240;28;20501;-63
2022/11/17 02:58:59;;;;;;;13.47;11.30;;;;;;;8.14;97.85;98133.53;5098851;28;20511;-63
2022/11/17 03:01:41;;;;;;;13.63;10.20;;;;;;;8.10;98.04;98126.91;5086052;28;20484;-62
2022/11/17 03:04:26;;;;;;;15.23;9.73;;;;;;;8.05;98.10;98139.94;5080850;28;20931;-62
2022/11/17 03:06:59;;;;;;;17.40;12.33;;;;;;;8.05;98.15;98131.94;5098417;28;20559;-63
2022/11/17 03:09:32;;;;;;;13.87;10.23;;;;;;;8.19;98.08;98136.50;5081934;28;20528;-62
2022/11/17 03:12:01;;;;;;;14.20;11.43;;;;;;;8.14;97.97;98143.34;5097711;28;20509;-63
2022/11/17 03:14:32;;;;;;;15.10;10.83;;;;;;;8.02;97.96;98130.47;5097307;28;20539;-63
2022/11/17 03:17:02;;;;;;;15.67;11.07;;;;;;;8.19;97.42;98147.13;5097945;28;21003;-63
2022/11/17 03:19:33;;;;;;;14.40;11.80;;;;;;;8.15;97.42;98151.16;5085219;28;20535;-63
2022/11/17 03:22:04;;;;;;;13.20;10.73;;;;;;;8.13;97.27;98137.22;5095458;28;20851;-63
2022/11/17 03:24:33;;;;;;;13.60;10.40;;;;;;;8.10;97.84;98140.22;5101899;28;20447;-63
2022/11/17 03:27:04;;;;;;;16.80;11.50;;;;;;;8.20;97.47;98140.81;5097916;28;20574;-63
2022/11/17 03:29:33;;;;;;;14.87;11.67;;;;;;;8.27;97.21;98131.13;5088235;28;20499;-63
2022/11/17 03:32:02;;;;;;;16.60;10.87;;;;;;;8.20;97.66;98130.19;5080918;28;20491;-63
2022/11/17 03:34:36;;;;;;;16.93;11.20;;;;;;;8.16;98.63;98118.25;5081546;28;20487;-62
2022/11/17 03:37:04;;;;;;;14.60;10.57;;;;;;;7.99;100.00;98114.84;5094110;28;20480;-64
2022/11/17 03:39:33;;;;;;;14.83;11.10;;;;;;;7.94;100.00;98106.56;5081381;28;21045;-63
2022/11/17 03:42:03;;;;;;;12.63;10.20;;;;;;;7.86;100.00;98096.81;5082950;28;20512;-64
2022/11/17 03:44:32;;;;;;;13.47;10.97;;;;;;;7.83;100.00;98097.16;5100384;28;20463;-64
2022/11/17 03:46:59;;;;;;;13.40;9.40;;;;;;;7.82;100.00;98094.69;5099935;28;20563;-64
2022/11/17 03:49:31;;;;;;;18.40;12.63;;;;;;;7.89;100.00;98099.13;5099491;28;20528;-64
2022/11/17 03:51:58;;;;;;;14.47;12.97;;;;;;;7.75;100.00;98093.75;5099851;28;20487;-65
2022/11/17 03:54:25;;;;;;;15.53;12.20;;;;;;;7.78;100.00;98080.06;5084596;28;20483;-64
2022/11/17 03:56:55;;;;;;;18.10;12.10;;;;;;;7.82;100.00;98086.72;5080193;28;20563;-64
2022/11/17 03:59:24;;;;;;;18.70;11.83;;;;;;;7.79;100.00;98077.22;5081625;28;20528;-65
2022/11/17 04:01:53;;;;;;;15.77;11.40;;;;;;;7.74;100.00;98066.28;5080457;28;20500;-64
2022/11/17 04:04:21;;;;;;;13.17;10.73;;;;;;;7.77;100.00;98073.91;5080993;28;20540;-64
2022/11/17 04:06:48;;;;;;;13.77;11.33;;;;;;;7.71;100.00;98074.66;5079658;28;20507;-63
2022/11/17 04:09:15;;;;;;;12.77;11.00;;;;;;;7.87;100.00;98069.19;5089408;28;20464;-63
2022/11/17 04:17:16;;;;;;;15.20;11.70;;;;;;;7.70;100.00;98070.31;5079996;28;20512;-67
2022/11/17 04:19:43;;;;;;;16.37;13.10;;;;;;;7.84;100.00;98063.41;5080952;28;20472;-66
2022/11/17 04:22:10;;;;;;;15.10;11.70;;;;;;;7.71;100.00;98059.50;5078991;28;20939;-68
2022/11/17 04:24:36;;;;;;;16.73;12.60;;;;;;;7.66;100.00;98048.56;5080995;28;20471;-66
2022/11/17 04:29:47;;;;;;;14.60;12.60;;;;;;;7.67;100.00;98073.31;5092582;28;20963;-66
2022/11/17 04:32:13;;;;;;;14.83;11.10;;;;;;;7.53;100.00;98075.75;5085536;28;20542;-67
2022/11/17 04:34:41;;;;;;;17.33;11.80;;;;;;;7.56;100.00;98063.91;5089114;28;20483;-67
2022/11/17 04:37:16;;;;;;;16.43;10.90;;;;;;;7.53;100.00;98062.44;5088081;28;20995;-67
2022/11/17 04:39:43;;;;;;;15.60;11.33;;;;;;;7.57;100.00;98056.75;5067846;28;20516;-66
2022/11/17 04:42:08;;;;;;;20.23;12.57;;;;;;;7.47;100.00;98057.81;5083821;28;20484;-67
2022/11/17 04:44:35;;;;;;;16.83;11.53;;;;;;;7.48;100.00;98042.69;5100358;28;20455;-68
2022/11/17 04:47:02;;;;;;;13.57;10.50;;;;;;;7.52;100.00;98052.81;5101540;28;20265;-66
2022/11/17 04:49:30;;;;;;;14.00;11.60;;;;;;;7.45;100.00;98038.56;5089894;28;20909;-67
2022/11/17 04:51:57;;;;;;;17.00;11.60;;;;;;;7.45;100.00;98049.19;5102707;28;20466;-67
2022/11/17 04:54:24;;;;;;;14.90;11.30;;;;;;;7.36;100.00;98044.94;5103577;28;20915;-66
2022/11/17 04:56:53;;;;;;;20.00;13.37;;;;;;;7.42;100.00;98041.56;5100858;28;20570;-67
2022/11/17 04:59:20;;;;;;;15.93;12.27;;;;;;;7.43;100.00;98053.88;5084467;28;20471;-65
2022/11/17 05:01:47;;;;;;;16.07;12.80;;;;;;;7.39;100.00;98049.88;5089238;28;20503;-73
2022/11/17 05:04:54;;;;;;;21.50;12.90;;;;;;;7.37;100.00;98038.59;5088621;28;20476;-66
2022/11/17 05:07:03;;;;;;;16.33;11.63;;;;;;;7.27;100.00;98020.19;5082208;28;20563;-67
2022/11/17 05:09:29;;;;;;;15.73;11.37;;;;;;;7.36;100.00;98031.66;5096866;28;20459;-67
2022/11/17 05:14:40;;;;;;;15.03;10.87;;;;;;;7.28;100.00;98010.41;5085966;28;20448;-67
2022/11/17 05:17:08;;;;;;;20.13;12.17;;;;;;;7.27;100.00;98008.75;5076365;28;20473;-66
2022/11/17 05:19:36;;;;;;;15.93;13.13;;;;;;;7.25;100.00;98005.44;5065870;28;20479;-67
2022/11/17 05:23:52;;;;;;;18.63;10.83;;;;;;;7.17;100.00;97995.69;5092355;28;20521;-68
2022/11/17 05:24:52;;;;;;;14.77;11.43;;;;;;;7.29;100.00;97996.09;5086992;28;20436;-67
2022/11/17 05:27:19;;;;;;;10.67;9.17;;;;;;;7.17;100.00;97987.72;5086431;28;20482;-66
2022/11/17 05:29:45;;;;;;;12.90;10.90;;;;;;;7.21;100.00;97993.53;5088641;28;20488;-67
2022/11/17 05:32:12;;;;;;;12.63;10.30;;;;;;;7.14;100.00;97994.19;5083873;28;20495;-67
2022/11/17 05:34:41;;;;;;;15.50;9.80;;;;;;;7.03;100.00;97989.28;5082636;28;20535;-69
2022/11/17 05:37:09;;;;;;;16.53;11.37;;;;;;;7.10;100.00;97990.25;5091125;28;20522;-70
2022/11/17 05:39:35;;;;;;;15.50;9.97;;;;;;;7.03;100.00;97985.78;5097734;28;20522;-70
2022/11/17 05:42:02;;;;;;;14.00;11.10;;;;;;;7.01;100.00;97983.31;5087190;28;21090;-70
2022/11/17 05:44:28;;;;;;;14.90;9.60;;;;;;;7.06;100.00;97983.59;5088923;28;20448;-69
2022/11/17 05:46:55;;;;;;;13.00;10.10;;;;;;;7.00;100.00;97979.00;5080846;28;20543;-69
2022/11/17 05:49:22;;;;;;;10.97;9.13;;;;;;;7.09;100.00;97969.97;5079959;28;20449;-68
2022/11/17 05:51:49;;;;;;;14.47;11.10;;;;;;;7.04;100.00;97984.81;5085758;28;20474;-69
2022/11/17 05:54:17;;;;;;;12.70;9.80;;;;;;;7.09;100.00;97980.59;5082568;28;20448;-69
2022/11/17 05:56:46;;;;;;;13.70;9.53;;;;;;;7.00;100.00;97981.66;5082291;28;20500;-69
2022/11/17 05:59:22;;;;;;;13.83;9.50;;;;;;;7.00;100.00;97963.06;5084449;28;20453;-69
2022/11/17 06:01:51;;;;;;;10.50;9.30;;;;;;;6.96;100.00;97964.41;5081830;28;20823;-69
2022/11/17 06:04:19;;;;;;;13.90;10.43;;;;;;;6.85;100.00;97951.53;5082405;28;20486;-69
2022/11/17 06:06:46;;;;;;;10.77;9.33;;;;;;;6.89;100.00;97942.19;5060981;28;20485;-69
2022/11/17 06:09:13;;;;;;;14.77;10.40;;;;;;;6.88;100.00;97943.22;5088155;28;20534;-69
2022/11/17 06:11:41;;;;;;;13.47;10.40;;;;;;;6.76;100.00;97946.25;5060379;28;20501;-69
2022/11/17 06:14:07;;;;;;;14.13;10.67;;;;;;;6.81;100.00;97940.41;5078222;28;20466;-67
2022/11/17 06:16:37;;;;;;;12.27;8.60;;;;;;;6.81;100.00;97942.25;5084424;28;20964;-64
2022/11/17 06:19:07;;;;;;;11.00;7.50;;;;;;;6.71;100.00;97932.66;5080282;28;20472;-63
2022/11/17 06:21:34;;;;;;;10.50;8.93;;;;;;;6.72;100.00;97909.59;5080157;28;20491;-62
2022/11/17 06:24:02;;;;;;;16.70;10.50;;;;;;;6.77;100.00;97918.69;5081003;28;20520;-63
2022/11/17 06:26:28;;;;;;;12.63;10.33;;;;;;;6.90;100.00;97930.56;5086943;28;20499;-63
2022/11/17 06:28:57;;;;;;;16.10;10.90;;;;;;;6.80;100.00;97925.47;5083645;28;20479;-63
2022/11/17 06:31:25;;;;;;;13.43;10.37;;;;;;;6.97;100.00;97935.00;5079248;28;20477;-63
2022/11/17 06:33:52;;;;;;;13.40;10.23;;;;;;;6.90;100.00;97923.44;5079514;28;20500;-63
2022/11/17 06:36:19;;;;;;;14.93;9.97;;;;;;;6.90;100.00;97936.72;5079249;28;20782;-62
2022/11/17 06:38:45;;;;;;;14.03;9.30;;;;;;;6.89;100.00;97932.41;5080479;28;20485;-63
2022/11/17 06:41:12;;;;;;;12.50;10.00;;;;;;;6.96;100.00;97927.22;5080214;28;20515;-63
2022/11/17 06:43:39;;;;;;;13.97;10.70;;;;;;;6.93;100.00;97930.22;5081012;28;20468;-62
2022/11/17 06:46:07;;;;;;;13.13;10.53;;;;;;;6.93;100.00;97920.44;5080160;28;20511;-62
2022/11/17 06:48:35;;;;;;;13.50;10.67;;;;;;;6.98;100.00;97925.22;5079632;28;20440;-63
2022/11/17 06:51:04;;;;;;;12.40;9.47;;;;;;;6.89;100.00;97908.50;5080916;28;20464;-62
2022/11/17 06:53:31;;;;;;;12.80;10.37;;;;;;;6.91;100.00;97933.06;5081210;28;20456;-62
2022/11/17 06:56:05;;;;;;;12.93;9.73;;;;;;;6.97;100.00;97919.06;5079489;28;20476;-63
2022/11/17 06:58:33;;;;;;;13.80;9.83;;;;;;;6.99;100.00;97926.88;5080812;28;20448;-62
2022/11/17 07:01:04;;;;;;;14.93;10.20;;;;;;;6.95;100.00;97923.72;5080180;28;20499;-63
2022/11/17 07:03:33;;;;;;;13.60;10.00;;;;;;;6.96;100.00;97917.44;5080414;28;20908;-63
2022/11/17 07:06:00;;;;;;;12.20;8.47;;;;;;;6.89;100.00;97918.28;5079984;28;20924;-63
2022/11/17 07:08:27;;;;;;;10.97;8.87;;;;;;;6.90;100.00;97922.59;5080512;28;20456;-62
2022/11/17 07:10:54;;;;;;;9.03;7.60;;;;;;;6.92;100.00;97924.06;5079738;28;20495;-62
2022/11/17 07:13:22;;;;;;;12.57;8.63;;;;;;;6.97;100.00;97916.41;5080909;28;20448;-63
2022/11/17 07:15:49;;;;;;;9.00;7.10;;;;;;;6.96;100.00;97903.31;5066063;28;20473;-62
2022/11/17 07:18:16;;;;;;;10.97;8.00;;;;;;;7.00;100.00;97914.44;5065560;28;20448;-62
2022/11/17 07:20:44;;;;;;;11.73;9.07;;;;;;;7.06;100.00;97908.41;5080320;28;20507;-62
2022/11/17 07:23:11;;;;;;;10.27;7.80;;;;;;;7.03;100.00;97920.22;5080085;28;20543;-63
2022/11/17 07:25:38;;;;;;;10.83;7.90;;;;;;;7.05;100.00;97902.28;5079182;28;20464;-62
2022/11/17 07:28:05;;;;;;;12.03;8.77;;;;;;;7.13;100.00;97907.53;5080772;28;20469;-62
2022/11/17 07:30:32;;;;;;;11.23;7.67;;;;;;;7.08;100.00;97909.88;5079456;28;20547;-63
2022/11/17 07:32:59;;;;;;;8.80;7.70;;;;;;;7.10;100.00;97918.50;5080039;28;20484;-62
2022/11/17 07:35:26;;;;;;;9.63;7.33;;;;;;;7.18;100.00;97914.97;5079994;28;20445;-69
2022/11/17 07:37:58;;;;;;;9.20;7.60;;;;;;;7.19;100.00;97908.66;5079391;28;20448;-69
2022/11/17 07:40:25;;;;;;;10.57;8.07;;;;;;;7.15;100.00;97907.34;5079062;28;20455;-64
2022/11/17 07:42:52;;;;;;;13.53;8.03;;;;;;;7.16;100.00;97917.78;5080751;28;20463;-68
2022/11/17 07:45:20;;;;;;;8.83;7.40;;;;;;;7.11;100.00;97911.34;5079446;28;20463;-68
2022/11/17 07:47:53;;;;;;;8.00;6.97;;;;;;;7.13;100.00;97912.84;5078756;28;20730;-67
2022/11/17 07:50:20;;;;;;;8.70;6.80;;;;;;;7.30;100.00;97912.72;5080457;28;20444;-66
2022/11/17 07:52:47;;;;;;;7.20;6.37;;;;;;;7.19;100.00;97899.84;5079943;28;20547;-67
2022/11/17 07:55:15;;;;;;;7.07;5.43;;;;;;;7.27;100.00;97902.44;5079122;28;20514;-68
2022/11/17 07:57:42;;;;;;;7.77;6.13;;;;;;;7.36;100.00;97901.41;5078186;28;20479;-68
2022/11/17 08:00:10;;;;;;;6.37;4.67;;;;;;;7.28;100.00;97906.75;5076620;28;20487;-68
2022/11/17 08:02:37;;;;;;;5.90;5.30;;;;;;;7.34;100.00;97914.00;5080055;28;20467;-68
2022/11/17 08:05:04;;;;;;;5.63;5.03;;;;;;;7.50;100.00;97907.75;5085504;28;21088;-67
2022/11/17 08:07:30;;;;;;;7.20;5.80;;;;;;;7.51;100.00;97896.94;5098635;28;20515;-68
2022/11/17 08:09:57;;;;;;;8.63;5.63;;;;;;;7.60;100.00;97902.19;5059260;28;20452;-68
2022/11/17 08:12:25;;;;;;;6.90;5.33;;;;;;;7.56;100.00;97895.59;5074835;28;20476;-68
2022/11/17 08:14:52;;;;;;;6.20;5.20;;;;;;;7.65;100.00;97897.97;5079476;28;20514;-69
2022/11/17 08:17:18;;;;;;;7.23;5.53;;;;;;;7.64;100.00;97882.22;5079303;28;20902;-68
2022/11/17 08:19:45;;;;;;;5.37;4.83;;;;;;;7.70;100.00;97881.47;5078939;28;20471;-66
2022/11/17 08:22:11;;;;;;;6.00;5.37;;;;;;;7.63;99.90;97891.19;5079333;28;20527;-67
2022/11/17 08:24:38;;;;;;;6.17;4.30;;;;;;;7.60;99.79;97894.19;5079308;28;20467;-67
2022/11/17 08:27:05;;;;;;;5.90;4.80;;;;;;;7.57;100.00;97892.75;5094011;28;20544;-68
2022/11/17 08:29:32;;;;;;;6.67;5.07;;;;;;;7.59;99.57;97890.72;5099757;28;20471;-67
2022/11/17 08:31:59;;;;;;;6.90;5.20;;;;;;;7.54;99.75;97893.09;5098494;28;20574;-69
2022/11/17 08:34:26;;;;;;;7.63;5.03;;;;;;;7.62;99.89;97898.34;5079919;28;20459;-69
2022/11/17 08:36:52;;;;;;;6.20;4.90;;;;;;;7.61;99.98;97890.56;5079109;28;21054;-68
2022/11/17 08:39:19;;;;;;;5.40;4.80;;;;;;;7.61;100.00;97909.97;5079423;28;21006;-67
2022/11/17 08:41:46;;;;;;;5.23;4.70;;;;;;;7.61;100.00;97895.88;5078631;28;20507;-67
2022/11/17 08:44:12;;;;;;;5.70;5.10;;;;;;;7.68;100.00;97897.63;5079032;28;20472;-67
2022/11/17 08:46:40;;;;;;;5.40;4.70;;;;;;;7.71;100.00;97891.94;5078203;28;20553;-68
2022/11/17 08:49:07;;;;;;;6.33;4.63;;;;;;;7.39;100.00;97898.34;5078157;28;20468;-67
2022/11/17 08:51:33;;;;;;;6.10;5.27;;;;;;;7.32;100.00;97900.06;5078172;28;20502;-66
2022/11/17 08:54:00;;;;;;;6.47;5.20;;;;;;;7.27;100.00;97894.47;5078592;28;20466;-68
2022/11/17 08:56:26;;;;;;;5.93;5.00;;;;;;;7.20;100.00;97890.88;5078570;28;20506;-67
2022/11/17 08:58:53;;;;;;;5.13;4.63;;;;;;;7.23;100.00;97907.28;5078996;28;20581;-68
2022/11/17 09:01:20;;;;;;;6.80;5.63;;;;;;;7.25;100.00;97907.94;5078412;28;20499;-68
2022/11/17 09:03:48;;;;;;;5.67;5.07;;;;;;;7.23;100.00;97915.25;5079095;28;20447;-68
2022/11/17 09:06:16;;;;;;;6.40;5.80;;;;;;;7.32;100.00;97910.72;5078125;28;20483;-68
2022/11/17 09:08:43;;;;;;;8.10;5.50;;;;;;;7.22;100.00;97913.63;5078814;28;20468;-69
2022/11/17 09:11:11;;;;;;;6.20;5.10;;;;;;;7.29;100.00;97919.88;5078970;28;20529;-68
2022/11/17 09:13:38;;;;;;;10.47;5.97;;;;;;;7.27;100.00;97907.75;5079386;28;20468;-69
2022/11/17 09:16:07;;;;;;;8.40;5.30;;;;;;;7.40;100.00;97917.81;5077525;28;20472;-69
2022/11/17 09:18:33;;;;;;;7.13;5.20;;;;;;;7.26;100.00;97912.25;5079091;28;20436;-68
2022/11/17 09:21:02;;;;;;;8.80;5.50;;;;;;;7.34;100.00;97914.84;5081877;28;20483;-69
2022/11/17 09:23:30;;;;;;;7.10;5.90;;;;;;;7.52;100.00;97908.41;5081582;28;20512;-69
2022/11/17 09:25:57;;;;;;;9.13;5.63;;;;;;;7.37;100.00;97908.34;5081806;28;20509;-68
2022/11/17 09:28:24;;;;;;;8.57;5.70;;;;;;;7.42;100.00;97926.44;5083305;28;20468;-67
2022/11/17 09:30:51;;;;;;;8.10;5.83;;;;;;;7.43;100.00;97923.59;5081737;28;20480;-67
2022/11/17 09:33:18;;;;;;;6.47;5.07;;;;;;;7.42;100.00;97926.44;5082870;28;20490;-67
2022/11/17 09:35:44;;;;;;;6.50;5.03;;;;;;;7.48;100.00;97917.72;5081945;28;20519;-67
2022/11/17 09:38:12;;;;;;;5.67;5.07;;;;;;;7.49;100.00;97922.88;5073030;28;20477;-67
2022/11/17 09:40:40;;;;;;;6.27;5.07;;;;;;;7.46;100.00;97920.56;5080496;28;20547;-64
2022/11/17 09:43:09;;;;;;;5.50;4.90;;;;;;;7.36;100.00;97917.34;5082495;28;20478;-67
2022/11/17 09:45:37;;;;;;;5.27;4.40;;;;;;;7.49;100.00;97920.22;5081106;28;20698;-67
2022/11/17 09:48:10;;;;;;;6.00;4.40;;;;;;;7.38;100.00;97917.13;5082013;28;20541;-66
2022/11/17 09:50:39;;;;;;;4.30;3.50;;;;;;;7.29;100.00;97916.38;5081716;28;20499;-68
2022/11/17 09:53:14;;;;;;;6.40;5.33;;;;;;;7.37;100.00;97921.63;5081064;28;20484;-68
2022/11/17 09:55:42;;;;;;;6.63;5.10;;;;;;;7.37;100.00;97910.19;5081898;28;21011;-67
2022/11/17 09:58:14;;;;;;;4.70;4.20;;;;;;;7.38;100.00;97925.97;5082224;28;20476;-65
2022/11/17 10:00:43;;;;;;;5.00;4.10;;;;;;;7.40;100.00;97910.66;5080435;28;20493;-64
2022/11/17 10:03:18;;;;;;;6.50;4.90;;;;;;;7.55;100.00;97921.31;5062397;28;20438;-65
2022/11/17 10:05:45;;;;;;;4.10;3.33;;;;;;;7.56;100.00;97927.50;5061532;28;20500;-66
2022/11/17 10:08:16;;;;;;;4.90;4.20;;;;;;;7.47;100.00;97934.69;5074474;28;20531;-66
2022/11/17 10:10:45;;;;;;;5.40;3.60;;;;;;;7.52;100.00;97942.97;5081493;28;20500;-65
2022/11/17 10:13:17;;;;;;;4.60;3.83;;;;;;;7.54;100.00;97930.31;5082302;28;20423;-66
2022/11/17 10:15:47;;;;;;;5.50;3.70;;;;;;;7.53;100.00;97940.13;5060119;28;21021;-66
2022/11/17 10:18:15;;;;;;;4.80;4.00;;;;;;;7.61;100.00;97933.91;5076005;28;20452;-66
2022/11/17 10:20:43;;;;;;;4.20;3.70;;;;;;;7.76;100.00;97938.44;5080736;28;20488;-64
2022/11/17 10:23:15;;;;;;;3.87;3.53;;;;;;;7.62;100.00;97938.25;5080762;28;20460;-65
2022/11/17 10:25:43;;;;;;;5.37;3.43;;;;;;;7.50;100.00;97943.16;5080950;28;20525;-66
2022/11/17 10:28:24;;;;;;;5.40;3.77;;;;;;;7.62;100.00;97930.25;5081497;28;20531;-67
2022/11/17 10:30:56;;;;;;;4.43;3.60;;;;;;;7.50;100.00;97924.53;5080100;28;20507;-67
2022/11/17 10:33:37;;;;;;;3.73;3.20;;;;;;;7.54;100.00;97932.97;5081574;28;20436;-66
2022/11/17 10:36:07;;;;;;;5.47;3.40;;;;;;;7.45;100.00;97916.25;5080300;28;21024;-66
2022/11/17 10:38:35;;;;;;;3.30;3.00;;;;;;;7.53;100.00;97932.16;5080210;28;20457;-66
2022/11/17 10:41:03;;;;;;;5.23;3.60;;;;;;;7.56;100.00;97928.31;5080653;28;20473;-67
2022/11/17 10:43:31;;;;;;;3.63;2.90;;;;;;;7.47;100.00;97930.19;5081532;28;20471;-64
2022/11/17 10:45:59;;;;;;;3.63;3.33;;;;;;;7.43;100.00;97938.69;5079607;28;21054;-67
2022/11/17 10:48:28;;;;;;;3.67;3.10;;;;;;;7.59;100.00;97948.41;5080251;28;20496;-66
2022/11/17 10:50:56;;;;;;;3.63;3.20;;;;;;;7.59;100.00;97945.75;5080897;28;20810;-67
2022/11/17 10:53:29;;;;;;;3.23;2.93;;;;;;;7.65;100.00;97940.53;5080033;28;20488;-66
2022/11/17 10:56:07;;;;;;;3.83;3.23;;;;;;;7.70;100.00;97947.97;5080682;28;20480;-65
2022/11/17 10:59:00;;;;;;;3.63;3.10;;;;;;;7.78;100.00;97944.41;5080558;28;20443;-65
2022/11/17 11:01:31;;;;;;;2.97;2.70;;;;;;;7.71;100.00;97942.47;5079378;28;20499;-66
2022/11/17 11:03:57;;;;;;;5.10;3.27;;;;;;;7.66;100.00;97944.03;5080937;28;20471;-66
2022/11/17 11:06:26;;;;;;;4.00;3.20;;;;;;;7.71;100.00;97947.78;5078811;28;20481;-67
2022/11/17 11:08:56;;;;;;;3.50;3.20;;;;;;;7.69;100.00;97943.66;5081445;28;20490;-67
2022/11/17 11:11:37;;;;;;;3.83;3.27;;;;;;;7.64;100.00;97951.38;5079692;28;20542;-65
2022/11/17 11:14:10;;;;;;;2.87;2.67;;;;;;;7.79;100.00;97954.06;5080329;28;20432;-65
2022/11/17 11:16:37;;;;;;;3.27;2.97;;;;;;;7.68;100.00;97942.84;5079741;28;20552;-66
2022/11/17 11:19:11;;;;;;;4.90;3.20;;;;;;;7.98;100.00;97953.53;5080497;28;20490;-66
2022/11/17 11:21:48;;;;;;;2.83;2.53;;;;;;;7.84;100.00;97941.84;5078542;28;20506;-65
2022/11/17 11:24:19;;;;;;;3.20;2.90;;;;;;;7.83;100.00;97942.88;5081066;28;20452;-65
2022/11/17 11:26:57;;;;;;;4.00;3.47;;;;;;;7.90;100.00;97961.63;5079954;28;20541;-66
2022/11/17 11:29:29;;;;;;;3.73;3.17;;;;;;;7.82;100.00;97973.13;5079981;28;20479;-66
2022/11/17 11:32:12;;;;;;;3.73;2.87;;;;;;;7.89;100.00;97976.72;5079875;28;21075;-66
2022/11/17 11:35:15;;;;;;;3.67;3.37;;;;;;;8.00;100.00;97964.84;5080428;28;20453;-65
2022/11/17 11:37:47;;;;;;;4.13;3.33;;;;;;;8.15;100.00;97956.88;5067643;28;20808;-66
2022/11/17 11:40:21;;;;;;;4.70;3.03;;;;;;;8.01;100.00;97973.66;5079567;28;20856;-66
2022/11/17 11:42:56;;;;;;;7.37;3.60;;;;;;;8.05;100.00;97958.97;5080707;28;20492;-65
2022/11/17 11:45:31;;;;;;;4.17;3.60;;;;;;;8.03;100.00;97951.16;5078814;28;20891;-66
2022/11/17 11:48:10;;;;;;;4.73;4.00;;;;;;;8.09;100.00;97960.28;5079385;28;20865;-65
2022/11/17 11:50:43;;;;;;;3.70;3.40;;;;;;;8.27;100.00;97958.09;5075110;28;20474;-66
2022/11/17 11:53:15;;;;;;;4.23;3.27;;;;;;;8.31;100.00;97966.53;5079981;28;20480;-64
2022/11/17 11:55:43;;;;;;;3.53;3.17;;;;;;;8.32;100.00;97956.72;5079393;28;20471;-66